createdAt,value
2019-03-10T00:01:34.209Z,100103.61
2019-03-10T00:04:00.013Z,100094.95
2019-03-10T00:06:25.796Z,100094.53
2019-03-10T00:08:51.593Z,100076.80
2019-03-10T00:11:17.370Z,100085.16
2019-03-10T00:13:43.165Z,100089.83
2019-03-10T00:16:08.948Z,100078.49
2019-03-10T00:18:34.757Z,100091.98
2019-03-10T00:21:00.551Z,100088.63
2019-03-10T00:23:26.364Z,100087.48
2019-03-10T00:25:52.160Z,100086.80
2019-03-10T00:28:18.240Z,100088.47
2019-03-10T00:30:44.439Z,100101.33
2019-03-10T00:33:10.201Z,100102.48
2019-03-10T00:35:36.001Z,100098.66
2019-03-10T00:38:01.790Z,100089.28
2019-03-10T00:40:49.764Z,100100.32
2019-03-10T00:43:53.219Z,100113.84
2019-03-10T00:46:52.045Z,100119.17
2019-03-10T00:49:27.736Z,100118.16
2019-03-10T00:52:08.904Z,100119.20
2019-03-10T00:54:34.700Z,100119.98
2019-03-10T00:57:00.591Z,100125.24
2019-03-10T00:59:26.499Z,100116.84
2019-03-10T01:01:52.270Z,100108.38
2019-03-10T01:04:18.154Z,100111.61
2019-03-10T01:06:44.057Z,100096.61
2019-03-10T01:09:09.831Z,100096.61
2019-03-10T01:11:35.620Z,100095.77
2019-03-10T01:14:01.394Z,100092.79
2019-03-10T01:16:27.484Z,100081.23
2019-03-10T01:18:53.667Z,100083.61
2019-03-10T01:21:20.374Z,100086.20
2019-03-10T01:23:46.153Z,100079.02
2019-03-10T01:26:12.053Z,100087.66
2019-03-10T01:28:37.827Z,100091.89
2019-03-10T01:31:31.661Z,100096.02
2019-03-10T01:34:19.312Z,100095.39
2019-03-10T01:36:45.155Z,100101.56
2019-03-10T01:39:11.038Z,100094.23
2019-03-10T01:41:36.846Z,100088.28
2019-03-10T01:44:02.632Z,100088.28
2019-03-10T01:46:28.420Z,100099.92
2019-03-10T01:48:54.200Z,100102.77
2019-03-10T01:51:20.118Z,100088.59
2019-03-10T01:53:45.903Z,100089.92
2019-03-10T01:56:11.681Z,100089.27
2019-03-10T01:58:37.481Z,100083.75
2019-03-10T02:01:03.252Z,100087.27
2019-03-10T02:03:29.059Z,100078.45
2019-03-10T02:05:54.840Z,100078.45
2019-03-10T02:08:21.043Z,100080.61
2019-03-10T02:10:46.818Z,100075.94
2019-03-10T02:13:12.727Z,100064.77
2019-03-10T02:15:38.517Z,100075.66
2019-03-10T02:18:04.316Z,100072.70
2019-03-10T02:20:30.109Z,100070.66
2019-03-10T02:22:55.906Z,100066.51
2019-03-10T02:25:21.691Z,100071.34
2019-03-10T02:27:47.502Z,100068.86
2019-03-10T02:30:15.167Z,100074.58
2019-03-10T02:32:41.049Z,100067.19
2019-03-10T02:35:06.828Z,100072.56
2019-03-10T02:37:32.628Z,100061.39
2019-03-10T02:39:58.417Z,100061.94
2019-03-10T02:42:24.207Z,100049.56
2019-03-10T02:44:49.993Z,100054.27
2019-03-10T02:47:15.775Z,100057.27
2019-03-10T02:49:41.566Z,100052.92
2019-03-10T02:52:07.352Z,100062.75
2019-03-10T02:54:33.142Z,100066.77
2019-03-10T02:56:58.926Z,100062.81
2019-03-10T02:59:24.721Z,100059.26
2019-03-10T03:01:50.500Z,100065.48
2019-03-10T03:04:16.318Z,100060.27
2019-03-10T03:06:42.106Z,100060.27
2019-03-10T03:09:07.999Z,100068.58
2019-03-10T03:11:33.783Z,100074.56
2019-03-10T03:13:59.568Z,100055.85
2019-03-10T03:16:25.344Z,100053.72
2019-03-10T03:18:51.156Z,100058.86
2019-03-10T03:21:16.946Z,100060.06
2019-03-10T03:23:42.741Z,100054.73
2019-03-10T03:26:08.522Z,100044.57
2019-03-10T03:28:34.324Z,100054.14
2019-03-10T03:31:00.116Z,100058.27
2019-03-10T03:33:25.915Z,100061.47
2019-03-10T03:35:57.307Z,100059.69
2019-03-10T03:38:41.862Z,100055.17
2019-03-10T03:41:19.356Z,100068.08
2019-03-10T03:43:45.157Z,100064.11
2019-03-10T03:46:10.943Z,100057.11
2019-03-10T03:48:36.732Z,100062.95
2019-03-10T03:51:02.518Z,100062.65
2019-03-10T03:53:28.343Z,100067.62
2019-03-10T03:55:54.297Z,100071.95
2019-03-10T03:58:20.102Z,100065.81
2019-03-10T04:00:47.768Z,100062.68
2019-03-10T04:03:13.553Z,100063.86
2019-03-10T04:05:39.341Z,100061.86
2019-03-10T04:08:05.118Z,100065.35
2019-03-10T04:10:30.930Z,100076.70
2019-03-10T04:12:56.705Z,100069.53
2019-03-10T04:15:22.507Z,100059.47
2019-03-10T04:17:48.296Z,100054.50
2019-03-10T04:20:14.089Z,100056.52
2019-03-10T04:22:39.861Z,100060.87
2019-03-10T04:25:06.466Z,100051.91
2019-03-10T04:27:32.257Z,100039.41
2019-03-10T04:29:58.045Z,100051.25
2019-03-10T04:32:23.834Z,100046.03
2019-03-10T04:34:49.622Z,100051.73
2019-03-10T04:37:15.399Z,100040.37
2019-03-10T04:39:41.195Z,100044.76
2019-03-10T04:42:06.973Z,100040.42
2019-03-10T04:44:32.778Z,100037.57
2019-03-10T04:46:58.556Z,100029.28
2019-03-10T04:49:24.370Z,100018.30
2019-03-10T04:51:50.148Z,100018.30
2019-03-10T04:54:17.843Z,100019.94
2019-03-10T04:56:45.553Z,100026.66
2019-03-10T04:59:11.334Z,100031.00
2019-03-10T05:01:37.117Z,100022.19
2019-03-10T05:04:02.896Z,100020.37
2019-03-10T05:06:28.688Z,100023.73
2019-03-10T05:08:54.463Z,100017.71
2019-03-10T05:11:20.259Z,100017.86
2019-03-10T05:13:46.032Z,100016.05
2019-03-10T05:16:11.836Z,100013.09
2019-03-10T05:18:37.611Z,100006.76
2019-03-10T05:21:03.416Z,100004.45
2019-03-10T05:23:34.536Z,100004.46
2019-03-10T05:26:00.737Z,99997.97
2019-03-10T05:28:28.614Z,100001.12
2019-03-10T05:30:54.408Z,99999.13
2019-03-10T05:33:20.219Z,100000.13
2019-03-10T05:35:46.016Z,99993.83
2019-03-10T05:38:11.796Z,99993.64
2019-03-10T05:40:37.619Z,99988.16
2019-03-10T05:43:03.405Z,99993.02
2019-03-10T05:45:29.218Z,99995.20
2019-03-10T05:47:54.978Z,99991.20
2019-03-10T05:50:20.772Z,99986.72
2019-03-10T05:52:46.546Z,99976.52
2019-03-10T05:55:12.344Z,99971.19
2019-03-10T05:57:38.120Z,99969.70
2019-03-10T06:00:07.638Z,99967.52
2019-03-10T06:02:33.427Z,99957.84
2019-03-10T06:04:59.371Z,99959.03
2019-03-10T06:07:25.163Z,99952.69
2019-03-10T06:09:50.940Z,99953.35
2019-03-10T06:12:16.737Z,99947.84
2019-03-10T06:14:42.520Z,99938.00
2019-03-10T06:17:08.313Z,99939.83
2019-03-10T06:19:34.094Z,99938.83
2019-03-10T06:21:59.899Z,99931.67
2019-03-10T06:24:25.671Z,99920.81
2019-03-10T06:26:51.480Z,99921.81
2019-03-10T06:29:17.258Z,99909.32
2019-03-10T06:31:43.048Z,99900.65
2019-03-10T06:34:08.823Z,99898.84
2019-03-10T06:36:34.620Z,99895.98
2019-03-10T06:39:00.396Z,99889.98
2019-03-10T06:41:26.212Z,99884.31
2019-03-10T06:43:51.984Z,99884.31
2019-03-10T06:46:17.793Z,99899.45
2019-03-10T06:48:43.571Z,99904.45
2019-03-10T06:51:09.356Z,99904.45
2019-03-10T06:53:35.130Z,99904.08
2019-03-10T06:56:00.929Z,99907.59
2019-03-10T06:58:26.723Z,99908.20
2019-03-10T07:00:52.523Z,99910.36
2019-03-10T07:03:18.291Z,99900.47
2019-03-10T07:05:44.079Z,99900.79
2019-03-10T07:08:09.880Z,99897.59
2019-03-10T07:10:35.660Z,99893.70
2019-03-10T07:13:01.461Z,99898.19
2019-03-10T07:15:27.233Z,99895.83
2019-03-10T07:17:53.124Z,99889.95
2019-03-10T07:20:19.210Z,99887.73
2019-03-10T07:22:45.005Z,99894.17
2019-03-10T07:25:10.791Z,99888.89
2019-03-10T07:27:38.497Z,99886.66
2019-03-10T07:30:09.287Z,99891.67
2019-03-10T07:32:42.868Z,99885.89
2019-03-10T07:35:10.561Z,99884.34
2019-03-10T07:37:41.025Z,99879.78
2019-03-10T07:40:11.271Z,99878.19
2019-03-10T07:42:41.729Z,99875.72
2019-03-10T07:45:15.232Z,99869.68
2019-03-10T07:47:42.937Z,99866.09
2019-03-10T07:50:28.489Z,99871.77
2019-03-10T07:52:56.185Z,99865.38
2019-03-10T07:55:29.515Z,99862.18
2019-03-10T07:58:13.797Z,99860.41
2019-03-10T08:00:53.454Z,99856.13
2019-03-10T08:03:30.005Z,99842.52
2019-03-10T08:05:57.691Z,99847.95
2019-03-10T08:08:25.395Z,99844.02
2019-03-10T08:11:02.062Z,99834.11
2019-03-10T08:13:46.413Z,99830.56
2019-03-10T08:16:30.740Z,99829.45
2019-03-10T08:18:58.429Z,99823.92
2019-03-10T08:21:28.664Z,99826.02
2019-03-10T08:23:56.370Z,99827.80
2019-03-10T08:26:26.572Z,99828.46
2019-03-10T08:28:54.278Z,99827.38
2019-03-10T08:31:21.963Z,99817.28
2019-03-10T08:34:04.485Z,99817.57
2019-03-10T08:36:41.036Z,99815.50
2019-03-10T08:39:25.031Z,99815.22
2019-03-10T08:42:04.637Z,99822.75
2019-03-10T08:44:50.247Z,99810.33
2019-03-10T08:47:17.932Z,99810.97
2019-03-10T08:49:51.195Z,99802.23
2019-03-10T08:52:24.499Z,99798.73
2019-03-10T08:54:57.831Z,99803.79
2019-03-10T08:57:40.670Z,99798.25
2019-03-10T09:00:16.983Z,99798.28
2019-03-10T09:03:03.048Z,99788.01
2019-03-10T09:05:39.751Z,99795.97
2019-03-10T09:08:07.497Z,99772.52
2019-03-10T09:10:41.076Z,99772.78
2019-03-10T09:13:11.401Z,99772.78
2019-03-10T09:15:41.048Z,99769.30
2019-03-10T09:18:23.892Z,99742.27
2019-03-10T09:20:51.604Z,99742.27
2019-03-10T09:23:21.211Z,99742.20
2019-03-10T09:25:51.909Z,99741.58
2019-03-10T09:28:28.405Z,99744.58
2019-03-10T09:31:05.201Z,99743.53
2019-03-10T09:33:32.925Z,99745.47
2019-03-10T09:36:00.619Z,99745.47
2019-03-10T09:38:28.321Z,99739.11
2019-03-10T09:40:58.997Z,99737.86
2019-03-10T09:43:29.448Z,99731.45
2019-03-10T09:46:06.020Z,99731.45
2019-03-10T09:48:39.256Z,99728.00
2019-03-10T09:51:06.968Z,99717.86
2019-03-10T09:53:43.395Z,99725.41
2019-03-10T09:56:11.094Z,99725.41
2019-03-10T09:58:47.590Z,99719.34
2019-03-10T10:01:15.296Z,99719.34
2019-03-10T10:03:45.772Z,99707.23
2019-03-10T10:06:13.487Z,99707.23
2019-03-10T10:08:46.756Z,99704.81
2019-03-10T10:11:23.030Z,99691.06
2019-03-10T10:13:56.465Z,99691.06
2019-03-10T10:16:29.739Z,99689.44
2019-03-10T10:19:03.410Z,99689.44
2019-03-10T10:21:33.968Z,99682.26
2019-03-10T10:24:04.156Z,99683.28
2019-03-10T10:26:37.745Z,99677.28
2019-03-10T10:29:08.413Z,99678.09
2019-03-10T10:31:38.676Z,99678.39
2019-03-10T10:34:23.295Z,99680.01
2019-03-10T10:36:50.990Z,99680.01
2019-03-10T10:39:21.752Z,99676.27
2019-03-10T10:41:58.478Z,99666.71
2019-03-10T10:44:26.174Z,99666.71
2019-03-10T10:46:56.693Z,99660.39
2019-03-10T10:49:27.120Z,99653.01
2019-03-10T10:51:57.616Z,99653.01
2019-03-10T10:54:25.441Z,99643.37
2019-03-10T10:56:53.109Z,99642.97
2019-03-10T10:59:20.804Z,99638.57
2019-03-10T11:01:48.550Z,99638.11
2019-03-10T11:04:21.884Z,99640.34
2019-03-10T11:06:49.660Z,99632.38
2019-03-10T11:09:20.437Z,99632.81
2019-03-10T11:11:54.096Z,99627.08
2019-03-10T11:14:38.347Z,99623.73
2019-03-10T11:17:08.866Z,99620.12
2019-03-10T11:19:36.648Z,99617.52
2019-03-10T11:22:06.883Z,99613.69
2019-03-10T11:24:34.643Z,99605.72
2019-03-10T11:27:02.681Z,99597.22
2019-03-10T11:29:46.937Z,99591.73
2019-03-10T11:32:29.741Z,99592.42
2019-03-10T11:35:15.427Z,99590.16
2019-03-10T11:37:43.131Z,99585.78
2019-03-10T11:40:29.323Z,99592.58
2019-03-10T11:42:57.073Z,99590.16
2019-03-10T11:45:41.534Z,99581.73
2019-03-10T11:48:18.008Z,99583.30
2019-03-10T11:50:54.772Z,99579.91
2019-03-10T11:53:25.858Z,99574.00
2019-03-10T11:55:53.627Z,99564.55
2019-03-10T11:58:21.343Z,99561.67
2019-03-10T12:00:51.868Z,99554.26
2019-03-10T12:03:36.016Z,99552.84
2019-03-10T12:06:03.711Z,99547.45
2019-03-10T12:08:46.248Z,99546.69
2019-03-10T12:11:12.037Z,99559.31
2019-03-10T12:13:37.823Z,99565.36
2019-03-10T12:16:03.705Z,99569.97
2019-03-10T12:18:29.500Z,99556.06
2019-03-10T12:20:55.300Z,99547.95
2019-03-10T12:23:21.197Z,99536.72
2019-03-10T12:25:47.034Z,99525.88
2019-03-10T12:28:12.923Z,99517.62
2019-03-10T12:30:38.827Z,99517.12
2019-03-10T12:33:04.630Z,99506.23
2019-03-10T12:35:34.388Z,99504.95
2019-03-10T12:37:58.249Z,99497.72
2019-03-10T12:40:24.062Z,99496.03
2019-03-10T12:42:49.968Z,99490.69
2019-03-10T12:45:15.996Z,99481.06
2019-03-10T12:47:41.800Z,99482.68
2019-03-10T12:50:10.946Z,99473.23
2019-03-10T12:52:36.760Z,99464.63
2019-03-10T12:55:05.486Z,99464.63
2019-03-10T12:57:31.313Z,99457.53
2019-03-10T12:59:57.108Z,99457.55
2019-03-10T13:02:22.890Z,99459.49
2019-03-10T13:04:48.699Z,99452.16
2019-03-10T13:07:14.519Z,99462.70
2019-03-10T13:09:40.424Z,99461.08
2019-03-10T13:12:06.239Z,99461.61
2019-03-10T13:14:32.795Z,99468.20
2019-03-10T13:16:58.705Z,99476.48
2019-03-10T13:19:25.523Z,99467.73
2019-03-10T13:21:51.479Z,99467.73
2019-03-10T13:24:17.538Z,99470.92
2019-03-10T13:26:43.468Z,99475.34
2019-03-10T13:29:09.474Z,99472.64
2019-03-10T13:31:35.448Z,99473.59
2019-03-10T13:34:01.691Z,99464.69
2019-03-10T13:36:27.776Z,99463.09
2019-03-10T13:38:53.572Z,99467.88
2019-03-10T13:41:19.633Z,99457.17
2019-03-10T13:43:45.484Z,99461.83
2019-03-10T13:46:11.286Z,99467.11
2019-03-10T13:48:37.176Z,99468.28
2019-03-10T13:51:03.130Z,99469.55
2019-03-10T13:53:28.961Z,99467.36
2019-03-10T13:55:54.753Z,99466.68
2019-03-10T13:58:20.583Z,99456.02
2019-03-10T14:00:46.430Z,99461.45
2019-03-10T14:03:12.320Z,99455.95
2019-03-10T14:05:38.324Z,99450.30
2019-03-10T14:08:05.301Z,99445.96
2019-03-10T14:10:31.118Z,99450.70
2019-03-10T14:12:56.925Z,99460.63
2019-03-10T14:15:22.721Z,99453.38
2019-03-10T14:17:48.594Z,99445.86
2019-03-10T14:20:15.416Z,99446.75
2019-03-10T14:22:41.422Z,99445.14
2019-03-10T14:25:09.864Z,99447.70
2019-03-10T14:27:35.805Z,99443.91
2019-03-10T14:30:02.085Z,99446.89
2019-03-10T14:32:27.911Z,99442.34
2019-03-10T14:34:56.276Z,99446.36
2019-03-10T14:37:22.119Z,99430.68
2019-03-10T14:39:48.022Z,99430.68
2019-03-10T14:42:14.198Z,99443.98
2019-03-10T14:44:40.215Z,99446.96
2019-03-10T14:47:06.075Z,99447.80
2019-03-10T14:49:31.936Z,99441.09
2019-03-10T14:51:58.397Z,99439.09
2019-03-10T14:54:24.325Z,99439.22
2019-03-10T14:56:50.279Z,99445.27
2019-03-10T14:59:16.159Z,99438.88
2019-03-10T15:01:42.158Z,99435.78
2019-03-10T15:04:08.119Z,99421.14
2019-03-10T15:06:34.054Z,99421.14
2019-03-10T15:09:02.959Z,99434.66
2019-03-10T15:11:28.988Z,99433.48
2019-03-10T15:13:55.073Z,99419.14
2019-03-10T15:16:20.859Z,99419.77
2019-03-10T15:18:46.659Z,99413.48
2019-03-10T15:21:12.447Z,99418.25
2019-03-10T15:23:40.308Z,99420.31
2019-03-10T15:26:05.925Z,99419.77
2019-03-10T15:28:31.726Z,99413.20
2019-03-10T15:30:57.510Z,99417.81
2019-03-10T15:33:23.304Z,99418.66
2019-03-10T15:35:49.080Z,99427.11
2019-03-10T15:38:14.878Z,99430.41
2019-03-10T15:40:40.656Z,99431.34
2019-03-10T15:43:06.477Z,99434.83
2019-03-10T15:45:32.260Z,99427.16
2019-03-10T15:47:58.175Z,99421.02
2019-03-10T15:50:26.858Z,99414.21
2019-03-10T15:52:52.674Z,99421.94
2019-03-10T15:55:18.446Z,99423.67
2019-03-10T15:57:50.163Z,99437.86
2019-03-10T16:00:20.604Z,99433.24
2019-03-10T16:02:46.380Z,99441.88
2019-03-10T16:05:12.276Z,99444.98
2019-03-10T16:07:38.058Z,99451.89
2019-03-10T16:10:06.762Z,99450.95
2019-03-10T16:12:32.548Z,99460.82
2019-03-10T16:14:58.431Z,99465.77
2019-03-10T16:17:24.206Z,99473.98
2019-03-10T16:19:50.020Z,99477.68
2019-03-10T16:22:15.804Z,99482.41
2019-03-10T16:24:41.611Z,99483.53
2019-03-10T16:27:07.394Z,99489.53
2019-03-10T16:29:33.198Z,99496.22
2019-03-10T16:31:58.978Z,99494.32
2019-03-10T16:34:24.774Z,99497.80
2019-03-10T16:36:50.676Z,99500.98
2019-03-10T16:39:16.466Z,99506.61
2019-03-10T16:41:42.251Z,99514.44
2019-03-10T16:44:08.042Z,99518.77
2019-03-10T16:46:33.865Z,99527.30
2019-03-10T16:48:59.645Z,99529.09
2019-03-10T16:51:25.443Z,99540.95
2019-03-10T16:53:51.219Z,99547.22
2019-03-10T16:56:18.918Z,99547.74
2019-03-10T16:58:44.696Z,99555.73
2019-03-10T17:01:10.496Z,99556.17
2019-03-10T17:03:36.271Z,99556.17
2019-03-10T17:06:02.067Z,99569.48
2019-03-10T17:08:27.843Z,99579.13
2019-03-10T17:10:53.632Z,99587.85
2019-03-10T17:13:22.446Z,99592.69
2019-03-10T17:15:48.340Z,99595.07
2019-03-10T17:18:14.133Z,99597.37
2019-03-10T17:20:39.945Z,99607.69
2019-03-10T17:23:05.724Z,99618.08
2019-03-10T17:25:31.511Z,99622.90
2019-03-10T17:27:57.290Z,99632.41
2019-03-10T17:30:24.278Z,99637.63
2019-03-10T17:32:50.171Z,99647.00
2019-03-10T17:35:16.758Z,99643.61
2019-03-10T17:37:44.204Z,99659.66
2019-03-10T17:40:12.307Z,99668.42
2019-03-10T17:42:38.172Z,99672.80
2019-03-10T17:45:07.553Z,99678.67
2019-03-10T17:47:35.817Z,99678.91
2019-03-10T17:50:02.723Z,99682.97
2019-03-10T17:52:28.597Z,99688.69
2019-03-10T17:54:54.438Z,99698.05
2019-03-10T17:57:20.321Z,99702.94
2019-03-10T17:59:46.219Z,99705.81
2019-03-10T18:02:11.995Z,99716.22
2019-03-10T18:04:37.780Z,99726.02
2019-03-10T18:07:03.838Z,99724.84
2019-03-10T18:09:29.625Z,99741.73
2019-03-10T18:11:56.540Z,99742.22
2019-03-10T18:14:22.715Z,99751.67
2019-03-10T18:16:48.517Z,99754.67
2019-03-10T18:19:14.290Z,99758.39
2019-03-10T18:21:40.089Z,99764.61
2019-03-10T18:24:05.878Z,99775.83
2019-03-10T18:26:31.647Z,99781.83
2019-03-10T18:28:57.447Z,99784.27
2019-03-10T18:31:23.227Z,99788.40
2019-03-10T18:33:49.017Z,99795.55
2019-03-10T18:36:14.796Z,99799.99
2019-03-10T18:38:40.586Z,99801.59
2019-03-10T18:41:06.366Z,99813.52
2019-03-10T18:43:32.159Z,99805.88
2019-03-10T18:45:57.937Z,99818.59
2019-03-10T18:48:23.727Z,99823.92
2019-03-10T18:50:49.509Z,99829.11
2019-03-10T18:53:16.121Z,99825.75
2019-03-10T18:55:42.189Z,99832.97
2019-03-10T18:58:08.120Z,99839.19
2019-03-10T19:00:34.309Z,99850.08
2019-03-10T19:03:00.093Z,99840.08
2019-03-10T19:05:25.872Z,99848.75
2019-03-10T19:07:51.668Z,99852.42
2019-03-10T19:10:17.449Z,99852.80
2019-03-10T19:12:43.324Z,99857.32
2019-03-10T19:15:11.644Z,99866.86
2019-03-10T19:17:37.424Z,99866.86
2019-03-10T19:20:06.925Z,99867.02
2019-03-10T19:22:32.719Z,99879.55
2019-03-10T19:24:58.509Z,99879.55
2019-03-10T19:27:30.229Z,99884.63
2019-03-10T19:29:51.996Z,99881.83
2019-03-10T19:32:17.771Z,99888.97
2019-03-10T19:34:43.591Z,99900.47
2019-03-10T19:37:09.384Z,99900.47
2019-03-10T19:39:35.177Z,99898.80
2019-03-10T19:42:00.962Z,99911.34
2019-03-10T19:44:26.754Z,99916.82
2019-03-10T19:46:52.535Z,99915.48
2019-03-10T19:49:18.326Z,99918.50
2019-03-10T19:51:44.108Z,99923.02
2019-03-10T19:54:09.902Z,99922.36
2019-03-10T19:56:35.679Z,99929.70
2019-03-10T19:59:01.479Z,99937.05
2019-03-10T20:01:27.256Z,99937.05
2019-03-10T20:03:53.075Z,99947.73
2019-03-10T20:06:18.852Z,99945.39
2019-03-10T20:08:44.651Z,99948.59
2019-03-10T20:11:10.449Z,99948.59
2019-03-10T20:13:36.228Z,99961.13
2019-03-10T20:16:02.020Z,99958.78
2019-03-10T20:18:27.812Z,99964.45
2019-03-10T20:20:53.610Z,99965.61
2019-03-10T20:23:19.395Z,99969.61
2019-03-10T20:25:45.187Z,99972.42
2019-03-10T20:28:10.964Z,99976.09
2019-03-10T20:30:36.764Z,99980.95
2019-03-10T20:33:02.549Z,99980.95
2019-03-10T20:35:28.339Z,99991.12
2019-03-10T20:37:54.135Z,99993.79
2019-03-10T20:40:24.435Z,99995.45
2019-03-10T20:42:50.230Z,100000.50
2019-03-10T20:45:16.419Z,100004.33
2019-03-10T20:47:42.244Z,100010.52
2019-03-10T20:50:13.382Z,100010.66
2019-03-10T20:52:39.166Z,100018.85
2019-03-10T20:55:07.082Z,100020.05
2019-03-10T20:57:32.869Z,100023.68
2019-03-10T21:00:00.738Z,100033.05
2019-03-10T21:02:26.344Z,100036.55
2019-03-10T21:04:52.125Z,100038.55
2019-03-10T21:07:17.918Z,100034.88
2019-03-10T21:09:43.692Z,100038.55
2019-03-10T21:12:09.482Z,100044.58
2019-03-10T21:14:35.258Z,100047.07
2019-03-10T21:17:01.060Z,100048.89
2019-03-10T21:19:26.843Z,100051.73
2019-03-10T21:21:52.642Z,100046.25
2019-03-10T21:24:18.420Z,100055.08
2019-03-10T21:26:44.214Z,100055.92
2019-03-10T21:29:09.998Z,100058.27
2019-03-10T21:31:35.795Z,100048.25
2019-03-10T21:34:01.576Z,100056.09
2019-03-10T21:36:27.371Z,100055.77
2019-03-10T21:38:53.154Z,100058.61
2019-03-10T21:41:18.949Z,100057.09
2019-03-10T21:43:44.761Z,100059.95
2019-03-10T21:46:10.519Z,100073.95
2019-03-10T21:48:36.300Z,100088.64
2019-03-10T21:51:02.075Z,100082.45
2019-03-10T21:53:27.891Z,100090.63
2019-03-10T21:55:53.674Z,100086.29
2019-03-10T21:58:19.468Z,100092.15
2019-03-10T22:00:45.247Z,100101.48
2019-03-10T22:03:11.039Z,100104.33
2019-03-10T22:05:36.818Z,100107.00
2019-03-10T22:08:02.608Z,100112.81
2019-03-10T22:10:28.388Z,100114.67
2019-03-10T22:12:54.179Z,100118.48
2019-03-10T22:15:19.959Z,100123.33
2019-03-10T22:17:45.778Z,100118.14
2019-03-10T22:20:14.166Z,100118.14
2019-03-10T22:22:48.192Z,100121.98
2019-03-10T22:25:12.868Z,100132.33
2019-03-10T22:27:36.068Z,100129.65
2019-03-10T22:30:03.268Z,100125.98
2019-03-10T22:32:29.059Z,100133.66
2019-03-10T22:34:54.851Z,100131.14
2019-03-10T22:37:20.626Z,100140.01
2019-03-10T22:39:46.436Z,100134.81
2019-03-10T22:42:12.215Z,100138.66
2019-03-10T22:44:38.005Z,100134.80
2019-03-10T22:47:03.776Z,100135.98
2019-03-10T22:49:29.563Z,100145.81
2019-03-10T22:51:55.344Z,100136.98
2019-03-10T22:54:21.137Z,100145.33
2019-03-10T22:56:46.908Z,100148.81
2019-03-10T22:59:12.708Z,100147.50
2019-03-10T23:01:38.484Z,100152.98
2019-03-10T23:04:04.299Z,100155.65
2019-03-10T23:06:30.084Z,100155.65
2019-03-10T23:08:55.870Z,100153.66
2019-03-10T23:11:21.643Z,100157.34
2019-03-10T23:13:47.464Z,100157.17
2019-03-10T23:16:13.248Z,100153.34
2019-03-10T23:18:39.027Z,100162.17
2019-03-10T23:21:04.924Z,100162.98
2019-03-10T23:23:30.701Z,100164.00
2019-03-10T23:25:56.501Z,100160.32
2019-03-10T23:28:22.474Z,100135.13
2019-03-10T23:30:48.278Z,100161.63
2019-03-10T23:33:14.044Z,100167.64
2019-03-10T23:35:39.840Z,100165.29
2019-03-10T23:38:05.622Z,100167.61
2019-03-10T23:40:31.410Z,100173.13
2019-03-10T23:42:57.189Z,100175.59
2019-03-10T23:45:22.983Z,100173.59
2019-03-10T23:47:48.767Z,100172.77
2019-03-10T23:50:17.902Z,100177.44
2019-03-10T23:52:43.687Z,100178.44
2019-03-10T23:55:10.778Z,100176.25
2019-03-10T23:57:36.564Z,100176.25
